富士山なう!!!!

LUXURY FLIGHT

080-7560-1817

羽田空港本店: 所在地: 東京都大田区羽田空港3-3-2    セントレア店: 所在地: 愛知県常滑市セントレア1-1      HICityファイター店: 所在地: 東京都大田区羽田空港1-1-4
           第1旅客ターミナル5階                  FLIGHT OF DREAMS FLIGHT PARK                 HANEDA INNOVATION CITY ZONE-J 2-5
      営業時間: 10:00~20:00 定休日: 年中無休         営業時間: 10:00~20:00 定休日: 年中無休             営業時間: 10:00~20:00 定休日: 年中無休
      電話番号: 080-7560-1817                  電話番号: 080-4945-5666                     電話番号: 03-5579-7980

lv

富士山なう!!!!

STAFF BLOG

2020/10/18 富士山なう!!!!

こんにちは!!!

 

羽田空港本店です!!!

 

 

img_7129

富士山やばいっす!!!!

 

 

 

 

img_7130

 

 

…ではまた!!!

 

 

 

あっ、一応METAR添えておきます!!!!

 

RJTT 180700Z 04009KT 9999 FEW020 BKN170 18/12 Q1021

NOSIG RMK 1CU020 7AC170 A3015

 

 

あまりに綺麗で感動してしまい…

お騒がせしました…

 

 

取り急ぎご報告&共有まで。笑

 

 

心から「感謝」

 

 

 

 

TOP